createdAt,value
2024-04-18T00:02:48.005Z,99140.69
2024-04-18T00:08:05.985Z,99141.38
2024-04-18T00:13:07.900Z,99142.22
2024-04-18T00:18:29.758Z,99146.97
2024-04-18T00:23:31.577Z,99148.06
2024-04-18T00:28:45.654Z,99140.13
2024-04-18T00:33:50.482Z,99137.88
2024-04-18T00:39:02.994Z,99135.91
2024-04-18T00:44:04.782Z,99135.22
2024-04-18T00:49:07.056Z,99129.47
2024-04-18T00:54:28.161Z,99142.19
2024-04-18T00:59:33.789Z,99136.06
2024-04-18T01:04:51.056Z,99150.97
2024-04-18T01:10:12.801Z,99161.31
2024-04-18T01:15:14.621Z,99177.66
2024-04-18T01:20:17.722Z,99181.00
2024-04-18T01:25:19.528Z,99182.50
2024-04-18T01:30:21.351Z,99188.41
2024-04-18T01:35:23.141Z,99192.91
2024-04-18T01:40:24.921Z,99189.88
2024-04-18T01:45:45.385Z,99185.94
2024-04-18T01:50:49.987Z,99196.13
2024-04-18T01:56:07.033Z,99191.75
2024-04-18T02:01:25.205Z,99199.53
2024-04-18T02:06:27.097Z,99199.50
2024-04-18T02:11:29.065Z,99215.78
2024-04-18T02:16:46.132Z,99207.78
2024-04-18T02:21:59.994Z,99213.97
2024-04-18T02:27:07.892Z,99208.75
2024-04-18T02:32:09.690Z,99217.84
2024-04-18T02:37:11.501Z,99221.22
2024-04-18T02:42:13.319Z,99221.03
2024-04-18T02:47:33.444Z,99228.78
2024-04-18T02:52:41.480Z,99237.06
2024-04-18T02:58:01.065Z,99228.19
2024-04-18T03:03:03.354Z,99232.72
2024-04-18T03:08:05.686Z,99227.19
2024-04-18T03:13:19.618Z,99240.16
2024-04-18T03:18:27.331Z,99239.00
2024-04-18T03:23:49.201Z,99244.16
2024-04-18T03:29:11.794Z,99246.63
2024-04-18T03:34:31.854Z,99258.94
2024-04-18T03:39:33.789Z,99256.69
2024-04-18T03:44:35.592Z,99263.03
2024-04-18T03:49:37.373Z,99269.91
2024-04-18T03:54:55.392Z,99270.84
2024-04-18T04:00:15.400Z,99268.56
2024-04-18T04:05:17.259Z,99274.91
2024-04-18T04:10:19.040Z,99287.53
2024-04-18T04:15:20.827Z,99289.19
2024-04-18T04:20:36.942Z,99302.09
2024-04-18T04:25:38.710Z,99308.34
2024-04-18T04:30:40.499Z,99315.88
2024-04-18T04:35:42.336Z,99325.34
2024-04-18T04:40:44.119Z,99337.94
2024-04-18T04:45:46.073Z,99339.16
2024-04-18T04:50:59.521Z,99343.78
2024-04-18T04:56:08.877Z,99353.22
2024-04-18T05:01:10.663Z,99361.06
2024-04-18T05:06:16.055Z,99365.97
2024-04-18T05:11:18.596Z,99373.91
2024-04-18T05:16:21.734Z,99380.06
2024-04-18T05:21:44.784Z,99388.84
2024-04-18T05:27:06.851Z,99409.03
2024-04-18T05:32:08.928Z,99407.97
2024-04-18T05:37:13.175Z,99413.56
2024-04-18T05:42:15.426Z,99416.66
2024-04-18T05:47:37.194Z,99422.38
2024-04-18T05:52:38.984Z,99419.56
2024-04-18T05:57:55.697Z,99420.03
2024-04-18T06:03:16.729Z,99425.34
2024-04-18T06:08:18.665Z,99426.28
2024-04-18T06:13:23.970Z,99430.41
2024-04-18T06:18:27.355Z,99434.19
2024-04-18T06:23:29.221Z,99442.81
2024-04-18T06:28:49.955Z,99449.28
2024-04-18T06:33:51.887Z,99460.06
2024-04-18T06:38:53.704Z,99460.56
2024-04-18T06:43:55.472Z,99463.19
2024-04-18T06:48:57.267Z,99475.19
2024-04-18T06:53:59.112Z,99479.41
2024-04-18T06:59:00.907Z,99495.75
2024-04-18T07:04:17.948Z,99496.06
2024-04-18T07:09:39.848Z,99500.16
2024-04-18T07:14:53.680Z,99497.63
2024-04-18T07:20:15.498Z,99505.25
2024-04-18T07:25:38.599Z,99508.41
2024-04-18T07:31:00.483Z,99514.91
2024-04-18T07:36:02.378Z,99516.31
2024-04-18T07:41:04.342Z,99524.16
2024-04-18T07:46:06.338Z,99532.63
2024-04-18T07:51:08.475Z,99534.97
2024-04-18T07:56:10.788Z,99539.19
2024-04-18T08:01:14.758Z,99563.44
2024-04-18T08:06:19.960Z,99561.28
2024-04-18T08:11:53.016Z,99572.41
2024-04-18T08:16:46.380Z,99571.84
2024-04-18T08:21:50.359Z,99569.94
2024-04-18T08:26:52.412Z,99573.56
2024-04-18T08:31:55.469Z,99576.19
2024-04-18T08:36:57.253Z,99580.91
2024-04-18T08:42:00.419Z,99590.25
2024-04-18T08:47:02.665Z,99574.31
2024-04-18T08:52:07.749Z,99577.91
2024-04-18T08:57:10.846Z,99583.09
2024-04-18T09:02:14.159Z,99573.78
2024-04-18T09:07:16.013Z,99577.78
2024-04-18T09:12:17.796Z,99578.75
2024-04-18T09:17:20.591Z,99576.09
2024-04-18T09:22:22.454Z,99573.13
2024-04-18T09:27:24.256Z,99574.28
2024-04-18T09:32:27.297Z,99576.81
2024-04-18T09:37:31.073Z,99571.00
2024-04-18T09:42:51.494Z,99576.91
2024-04-18T09:47:53.704Z,99588.38
2024-04-18T09:52:56.981Z,99591.75
2024-04-18T09:57:59.958Z,99584.75
2024-04-18T10:03:04.637Z,99593.63
2024-04-18T10:08:08.788Z,99588.44
2024-04-18T10:13:10.964Z,99590.13
2024-04-18T10:18:17.475Z,99588.50
2024-04-18T10:23:22.411Z,99602.38
2024-04-18T10:28:26.636Z,99600.50
2024-04-18T10:33:32.530Z,99608.00
2024-04-18T10:38:35.117Z,99595.41
2024-04-18T10:43:37.695Z,99594.16
2024-04-18T10:48:41.360Z,99597.03
2024-04-18T10:53:43.501Z,99604.53
2024-04-18T10:58:45.350Z,99606.38
2024-04-18T11:03:51.859Z,99597.19
2024-04-18T11:08:53.718Z,99605.69
2024-04-18T11:13:56.772Z,99600.44
2024-04-18T11:18:58.982Z,99603.47
2024-04-18T11:24:00.955Z,99610.41
2024-04-18T11:29:02.878Z,99603.03
2024-04-18T11:34:04.829Z,99610.66
2024-04-18T11:39:07.566Z,99611.19
2024-04-18T11:44:09.591Z,99617.81
2024-04-18T11:49:11.553Z,99635.22
2024-04-18T11:54:13.429Z,99638.38
2024-04-18T11:59:17.977Z,99641.59
2024-04-18T12:04:19.873Z,99642.25
2024-04-18T12:09:21.922Z,99643.66
2024-04-18T12:14:24.677Z,99638.00
2024-04-18T12:19:29.210Z,99626.03
2024-04-18T12:24:31.063Z,99634.50
2024-04-18T12:29:48.155Z,99633.31
2024-04-18T12:34:51.017Z,99631.81
2024-04-18T12:39:53.114Z,99635.31
2024-04-18T12:45:01.022Z,99641.31
2024-04-18T12:50:03.009Z,99640.34
2024-04-18T12:55:05.299Z,99636.19
2024-04-18T13:00:07.855Z,99639.25
2024-04-18T13:05:28.567Z,99637.38
2024-04-18T13:10:38.669Z,99641.47
2024-04-18T13:16:00.752Z,99640.88
2024-04-18T13:21:04.670Z,99645.91
2024-04-18T13:26:06.597Z,99640.34
2024-04-18T13:31:14.262Z,99632.09
2024-04-18T13:36:23.561Z,99626.94
2024-04-18T13:41:31.725Z,99621.03
2024-04-18T13:46:49.734Z,99630.47
2024-04-18T13:52:10.364Z,99639.34
2024-04-18T13:57:18.286Z,99640.59
2024-04-18T14:02:20.597Z,99633.66
2024-04-18T14:07:22.461Z,99625.38
2024-04-18T14:12:24.332Z,99630.75
2024-04-18T14:17:50.222Z,99626.94
2024-04-18T14:22:51.995Z,99618.44
2024-04-18T14:27:53.771Z,99625.50
2024-04-18T14:33:11.095Z,99622.63
2024-04-18T14:38:12.994Z,99620.38
2024-04-18T14:43:15.143Z,99624.00
2024-04-18T14:48:16.996Z,99631.50
2024-04-18T14:53:20.679Z,99630.06
2024-04-18T14:58:42.682Z,99633.94
2024-04-18T15:03:56.820Z,99632.19
2024-04-18T15:08:58.714Z,99639.75
2024-04-18T15:14:00.498Z,99636.50
2024-04-18T15:19:02.862Z,99633.41
2024-04-18T15:24:24.993Z,99641.09
2024-04-18T15:29:35.642Z,99640.66
2024-04-18T15:34:55.811Z,99638.00
2024-04-18T15:40:10.086Z,99637.47
2024-04-18T15:45:11.946Z,99638.63
2024-04-18T15:50:24.384Z,99639.84
2024-04-18T15:55:26.271Z,99645.28
2024-04-18T16:00:28.127Z,99639.25
2024-04-18T16:05:29.890Z,99643.22
2024-04-18T16:10:43.834Z,99639.91
2024-04-18T16:16:02.821Z,99647.56
2024-04-18T16:21:11.804Z,99653.59
2024-04-18T16:26:13.748Z,99653.81
2024-04-18T16:31:15.547Z,99649.91
2024-04-18T16:36:27.781Z,99647.03
2024-04-18T16:41:44.013Z,99647.75
2024-04-18T16:46:45.778Z,99655.47
2024-04-18T16:51:49.744Z,99650.63
2024-04-18T16:56:58.579Z,99654.44
2024-04-18T17:02:19.765Z,99656.69
2024-04-18T17:07:21.531Z,99652.81
2024-04-18T17:12:41.778Z,99656.84
2024-04-18T17:18:07.995Z,99653.34
2024-04-18T17:23:09.987Z,99665.69
2024-04-18T17:28:11.842Z,99667.69
2024-04-18T17:33:33.718Z,99669.88
2024-04-18T17:38:35.527Z,99667.25
2024-04-18T17:43:57.291Z,99665.34
2024-04-18T17:49:19.087Z,99667.44
2024-04-18T17:54:21.065Z,99670.78
2024-04-18T17:59:22.858Z,99665.50
2024-04-18T18:04:24.777Z,99668.75
2024-04-18T18:09:26.676Z,99669.84
2024-04-18T18:14:28.431Z,99677.13
2024-04-18T18:19:33.126Z,99682.19
2024-04-18T18:24:37.536Z,99674.50
2024-04-18T18:29:39.399Z,99680.94
2024-04-18T18:34:43.443Z,99685.19
2024-04-18T18:39:45.459Z,99683.97
2024-04-18T18:44:47.331Z,99685.66
2024-04-18T18:49:49.200Z,99688.69
2024-04-18T18:54:51.085Z,99695.13
2024-04-18T18:59:52.940Z,99697.25
2024-04-18T19:04:54.710Z,99695.69
2024-04-18T19:09:56.498Z,99697.06
2024-04-18T19:14:58.250Z,99696.06
2024-04-18T19:20:00.123Z,99682.00
2024-04-18T19:25:02.094Z,99677.38
2024-04-18T19:30:04.711Z,99681.59
2024-04-18T19:35:06.783Z,99692.38
2024-04-18T19:40:09.035Z,99690.28
2024-04-18T19:45:10.848Z,99689.25
2024-04-18T19:50:12.683Z,99684.53
2024-04-18T19:55:15.028Z,99682.38
2024-04-18T20:00:16.952Z,99686.78
2024-04-18T20:05:18.730Z,99683.34
2024-04-18T20:10:20.509Z,99682.59
2024-04-18T20:15:22.356Z,99681.28
2024-04-18T20:20:24.146Z,99679.66
2024-04-18T20:25:25.924Z,99685.50
2024-04-18T20:30:27.795Z,99680.41
2024-04-18T20:35:47.382Z,99686.25
2024-04-18T20:40:49.262Z,99692.66
2024-04-18T20:45:55.190Z,99679.66
2024-04-18T20:50:56.959Z,99669.59
2024-04-18T20:55:58.716Z,99670.75
2024-04-18T21:01:00.698Z,99669.00
2024-04-18T21:06:02.686Z,99669.06
2024-04-18T21:11:04.835Z,99672.47
2024-04-18T21:16:06.864Z,99661.88
2024-04-18T21:21:08.762Z,99669.03
2024-04-18T21:26:10.685Z,99671.28
2024-04-18T21:31:12.786Z,99659.78
2024-04-18T21:36:14.766Z,99662.88
2024-04-18T21:41:16.657Z,99666.66
2024-04-18T21:46:18.566Z,99662.88
2024-04-18T21:51:20.506Z,99660.06
2024-04-18T21:56:22.425Z,99646.28
2024-04-18T22:01:24.337Z,99657.81
2024-04-18T22:06:26.268Z,99660.16
2024-04-18T22:11:28.175Z,99658.34
2024-04-18T22:16:30.652Z,99657.63
2024-04-18T22:21:32.637Z,99641.16
2024-04-18T22:26:35.610Z,99626.97
2024-04-18T22:31:37.600Z,99623.00
2024-04-18T22:36:39.621Z,99618.59
2024-04-18T22:41:41.610Z,99606.63
2024-04-18T22:46:43.498Z,99599.28
2024-04-18T22:51:45.476Z,99609.50
2024-04-18T22:56:47.417Z,99619.34
2024-04-18T23:01:49.588Z,99602.63
2024-04-18T23:06:51.582Z,99602.13
2024-04-18T23:11:53.493Z,99608.44
2024-04-18T23:16:55.422Z,99608.56
2024-04-18T23:21:57.543Z,99617.97
2024-04-18T23:27:14.942Z,99602.59
2024-04-18T23:32:16.898Z,99605.69
2024-04-18T23:37:18.830Z,99585.91
2024-04-18T23:42:20.747Z,99583.56
2024-04-18T23:47:22.724Z,99579.19
2024-04-18T23:52:24.648Z,99566.56
2024-04-18T23:57:27.776Z,99567.69
